Thursday, January 29, 2015
14:21 UTC
  |  Log In   |  Register Free
Airport Search:

Ellington Airport
(KEFD)

FAA data valid effective January 08, 2015 - March 05, 2015 (unless otherwise noted).

 
 
 
 
 
 
 
 
 
 
 
 
 
 

Current Aviation Weather for Ellington Airport (KEFD)

The most recent METAR observation for KEFD was updated at: 1412
METAR Summary (Translated METAR)
KEFD
291350Z 00000KT 1/4SM FG BKN002 12/12 A3022
KHOU
291353Z 00000KT 3/4SM BR SCT001 BKN250 12/12 A3021 RMK AO2 SLP235 T01170117
(6.7 nm NW from KEFD)
KLVJ
291353Z AUTO 08008KT 1/4SM FG VV002 11/11 A3023 RMK AO2 SLP235 T01110106
(6.8 nm SW from KEFD)
TAF Summary (Translated TAF)
KEFD
2912/3018 16006KT 0400 FG BKN002 QNH3017INS BECMG 2914/2915 24006KT 9999 NSW SKC QNH3019INS BECMG 3001/3002 35009KT 9999 SCT020 QNH3021INS BECMG 3014/3015 03009KT 9999 SCT100 QNH3037INS TX22/2921Z TN10/2913Z
KHOU
(6.7 nm NW from KEFD)
291122Z 2912/3012 VRB03KT 1/2SM FG VV001 TEMPO 2914/2915 2SM BR BKN004 FM291530 22004KT 4SM BR BKN007 FM291630 23007KT P6SM SCT015 SCT110 SCT250 FM292000 26005KT P6SM SCT035 SCT120 FM300400 36012KT P6SM SCT030 BKN110 BKN200 FM301100 03011KT P6SM SCT120 OVC200
  Airport Weather Conditions for KEFD

 Current Weather at EFD
54° F
Fog
North winds at 0.0 mph
EFD NOAA Radar

Pressure: 30.22 in
Humidity: 100%
Wind: Calm
Dew Point: 53.6°F
Visibility: 0.25 mi


Airport Weather Forecast for KEFD

Translated METAR and TAF for KEFD
Translated METAR for KEFD (1422 UTC 29 January 2015)
found at http://aviationweather.gov/adds/metars/
 
METAR text: KEFD 291350Z 00000KT 1/4SM FG BKN002 12/12 A3022
Conditions at: KEFD (HOUSTON/ELLINGTO, TX, US) observed 1350 UTC 29 January 2015
Temperature: 12.0°C (54°F)
Dewpoint: 12.0°C (54°F) [RH = 100%]
Pressure (altimeter): 30.22 inches Hg (1023.5 mb)
Winds: calm
Visibility: 0.25 miles (0.40 km)
Ceiling: 200 feet AGL
Clouds: broken clouds at 200 feet AGL
Weather: FG  (fog)
Translated TAF for KEFD
Forecast for: KEFD (HOUSTON/ELLINGTO, TX, US)
TAF Text: TAF KEFD 2912/3018 16006KT 0400 FG BKN002 QNH3017INS
Forecast period: 1200 to 1400 UTC 29 January 2015
Forecast type: FROM: standard forecast or significant change
Winds: from the SSE (160 degrees) at 7 MPH (6 knots; 3.1 m/s)
Visibility: 0.25 miles (0.40 km)
Ceiling: 200 feet AGL
Clouds: broken clouds at 200 feet AGL
Weather: FG  (fog)
TAF Text: BECMG 2914/2915 24006KT 9999 NSW SKC QNH3019INS
Forecast period: 1400 UTC 29 January 2015 to 0100 UTC 30 January 2015
Forecast type: BECOMING: Conditions expected to become as follows by 1500 UTC 29 January 2015
Winds: from the WSW (240 degrees) at 7 MPH (6 knots; 3.1 m/s)
Visibility: 6 or more miles (10+ km)
Clouds: clear skies
Weather: NSW  (no significant weather)
TAF Text: BECMG 3001/3002 35009KT 9999 SCT020 QNH3021INS
Forecast period: 0100 to 1400 UTC 30 January 2015
Forecast type: BECOMING: Conditions expected to become as follows by 0200 UTC 30 January 2015
Winds: from the N (350 degrees) at 10 MPH (9 knots; 4.7 m/s)
Visibility: 6 or more miles (10+ km)
Clouds: scattered clouds at 2000 feet AGL
Weather: NSW  (no significant weather)
TAF Text: BECMG 3014/3015 03009KT 9999 SCT100 QNH3037INS TX22/2921Z TN10/2913Z
Forecast period: 1400 to 1800 UTC 30 January 2015
Forecast type: BECOMING: Conditions expected to become as follows by 1500 UTC 30 January 2015
Winds: from the NNE (30 degrees) at 10 MPH (9 knots; 4.7 m/s)
Visibility: 6 or more miles (10+ km)
Clouds: scattered clouds at 10000 feet AGL
Weather: NSW  (no significant weather)

Find All Airport Services Find A Hotel Find A Rental Car Find A Golf Course Find A Restaurant $100 Hamburger



FBO's on the Field
FBO Company Facility Photos Services Transportation Aviation Fuel Prices: Prices include tax
Catering Weather Repair Courtesy Rental Type 100LL JetA JetA+ MOGAS 8087
 
Southwest Airport Services

This FBO has not yet been rated
FS:Independent
Last Updated: Jan-27
Login to update fuel prices
SS:
Contact Southwest Airport ServicesMore FBO Information
 
Add another FBO Facility Photos Catering Weather Repair Courtesy Rental Type 100LL JetA JetA+ MOGAS 8087
Services Transportation Aviation Fuel Prices: Prices include tax


model-print
model-print
model-print
model-print